Time;durP1;ratioP1;P1;durP2;ratioP2;P2;SDS_P1;SDS_P2;PMS_P1;PMS_P2;Temp;Humidity;BMP_temperature;BMP_pressure;BME280_temperature;BME280_humidity;BME280_pressure;Samples;Min_cycle;Max_cycle;Signal;HPM_P1;HPM_P2
2022/07/10 00:00:26;;;;;;;5.07;4.77;;;;;;;20.31;95.91;99073.72;5116373;27;20208;-71
2022/07/10 00:02:55;;;;;;;5.73;5.43;;;;;;;20.20;96.19;99058.03;5124690;27;20198;-70
2022/07/10 00:05:23;;;;;;;6.73;6.23;;;;;;;20.31;96.07;99071.94;5124603;27;20197;-71
2022/07/10 00:07:51;;;;;;;6.10;5.80;;;;;;;20.30;96.33;99077.25;5122706;27;20201;-71
2022/07/10 00:10:19;;;;;;;6.00;5.60;;;;;;;20.30;95.90;99077.25;5124147;27;20195;-71
2022/07/10 00:12:46;;;;;;;5.70;5.40;;;;;;;20.27;96.40;99073.13;5133035;27;20208;-71
2022/07/10 00:15:14;;;;;;;5.50;5.00;;;;;;;20.28;96.10;99071.34;5131924;27;20225;-71
2022/07/10 00:17:41;;;;;;;5.90;5.60;;;;;;;20.26;96.56;99070.59;5123912;27;20643;-70
2022/07/10 00:20:11;;;;;;;5.87;5.57;;;;;;;20.24;96.81;99068.13;5122173;27;20197;-70
2022/07/10 00:22:38;;;;;;;6.63;6.13;;;;;;;20.24;97.00;99065.50;5123203;27;20209;-71
2022/07/10 00:25:07;;;;;;;7.10;6.60;;;;;;;20.21;97.05;99059.69;5120314;27;20239;-70
2022/07/10 00:27:34;;;;;;;6.60;6.20;;;;;;;20.26;96.85;99065.38;5123805;27;20199;-71
2022/07/10 00:30:01;;;;;;;6.67;6.30;;;;;;;20.28;96.35;99055.72;5122154;27;20204;-71
2022/07/10 00:32:28;;;;;;;6.10;5.80;;;;;;;20.23;96.28;99047.38;5127981;27;20551;-71
2022/07/10 00:34:55;;;;;;;5.87;5.57;;;;;;;20.18;96.37;99041.72;5132499;27;20200;-71
2022/07/10 00:37:23;;;;;;;6.30;6.00;;;;;;;20.16;96.53;99035.81;5133164;27;20593;-71
2022/07/10 00:39:50;;;;;;;6.40;6.10;;;;;;;20.11;96.63;99028.31;5133246;27;20197;-71
2022/07/10 00:42:17;;;;;;;6.43;6.13;;;;;;;20.16;97.26;99028.00;5128534;27;20247;-71
2022/07/10 00:44:44;;;;;;;6.00;5.70;;;;;;;20.20;97.02;99034.59;5121925;27;20259;-70
2022/07/10 00:47:13;;;;;;;5.83;5.50;;;;;;;20.19;96.91;99038.19;5122016;27;20232;-71
2022/07/10 00:49:41;;;;;;;5.83;5.53;;;;;;;20.09;96.62;99021.59;5124896;27;20197;-70
2022/07/10 00:52:11;;;;;;;5.90;5.60;;;;;;;20.18;96.92;99036.50;5128028;27;20195;-71
2022/07/10 00:54:42;;;;;;;6.07;5.70;;;;;;;20.19;97.42;99032.97;5117712;27;20657;-70
2022/07/10 00:57:09;;;;;;;5.03;4.83;;;;;;;20.18;96.98;99029.53;5132215;27;20208;-70
2022/07/10 00:59:37;;;;;;;5.40;5.17;;;;;;;20.05;97.06;99007.97;5131559;27;20285;-72
2022/07/10 01:02:05;;;;;;;6.10;5.80;;;;;;;20.13;97.31;99017.81;5125268;27;20694;-71
2022/07/10 01:04:33;;;;;;;6.13;5.83;;;;;;;20.16;97.25;99013.19;5115138;27;20224;-71
2022/07/10 01:07:00;;;;;;;7.33;5.20;;;;;;;20.19;96.94;99022.56;5129760;27;20246;-71
2022/07/10 01:09:28;;;;;;;5.30;5.10;;;;;;;20.17;97.66;99019.22;5130938;27;20215;-71
2022/07/10 01:11:58;;;;;;;5.50;5.07;;;;;;;20.14;97.77;99015.09;5130846;27;20199;-71
2022/07/10 01:14:26;;;;;;;5.53;4.93;;;;;;;20.14;97.57;99022.06;5126177;27;20194;-71
2022/07/10 01:16:53;;;;;;;5.03;4.83;;;;;;;20.11;97.73;99009.28;5122618;27;20197;-71
2022/07/10 01:19:20;;;;;;;5.60;5.17;;;;;;;20.12;97.41;99016.16;5120026;27;20574;-71
2022/07/10 01:21:48;;;;;;;6.23;5.87;;;;;;;20.10;97.66;99015.41;5121246;27;20216;-71
2022/07/10 01:24:15;;;;;;;6.10;5.80;;;;;;;19.98;97.67;98992.94;5127384;27;20206;-70
2022/07/10 01:26:43;;;;;;;6.03;5.63;;;;;;;20.05;96.86;99000.16;5123024;27;20581;-71
2022/07/10 01:29:12;;;;;;;6.63;6.23;;;;;;;20.04;96.71;99008.06;5123631;27;20207;-71
2022/07/10 01:31:40;;;;;;;6.70;6.30;;;;;;;20.12;96.90;99016.16;5121524;27;20288;-70
2022/07/10 01:34:09;;;;;;;6.43;5.80;;;;;;;20.11;97.15;99014.47;5120955;27;20205;-71
2022/07/10 01:36:37;;;;;;;6.30;5.90;;;;;;;19.96;97.25;98989.63;5128886;27;20577;-71
2022/07/10 01:39:06;;;;;;;6.63;6.23;;;;;;;20.08;96.94;99018.16;5131025;27;20201;-71
2022/07/10 01:41:33;;;;;;;6.50;6.13;;;;;;;20.11;96.92;99014.47;5115606;27;20728;-70
2022/07/10 01:44:00;;;;;;;6.70;6.30;;;;;;;20.16;96.72;99017.59;5126135;27;20205;-71
2022/07/10 01:46:27;;;;;;;6.47;6.17;;;;;;;20.18;96.48;99019.13;5130544;27;20220;-71
2022/07/10 01:48:54;;;;;;;7.23;6.63;;;;;;;20.20;96.42;99013.78;5122203;27;20197;-71
2022/07/10 01:51:21;;;;;;;7.70;7.20;;;;;;;20.20;96.79;99014.63;5130813;27;20546;-71
2022/07/10 01:53:48;;;;;;;7.27;6.77;;;;;;;20.18;97.15;99003.50;5120428;27;20680;-71
2022/07/10 01:56:17;;;;;;;7.13;6.80;;;;;;;20.04;97.23;98982.06;5119644;27;20691;-71
2022/07/10 01:58:44;;;;;;;7.60;7.00;;;;;;;20.13;97.37;98992.59;5129395;27;20193;-70
2022/07/10 02:01:12;;;;;;;8.33;7.73;;;;;;;20.10;97.89;98986.78;5131406;27;20197;-71
2022/07/10 02:06:23;;;;;;;8.47;8.00;;;;;;;20.06;98.60;98974.97;5121649;27;20758;-71
2022/07/10 02:08:50;;;;;;;8.60;7.90;;;;;;;20.02;98.75;98978.75;5120852;27;20270;-71
2022/07/10 02:11:19;;;;;;;8.77;8.27;;;;;;;19.98;99.06;98977.31;5120461;27;20197;-71
2022/07/10 02:13:46;;;;;;;9.20;8.60;;;;;;;19.97;99.33;98976.47;5126182;28;20205;-71
2022/07/10 02:16:13;;;;;;;9.37;8.87;;;;;;;19.97;99.76;98980.88;5114189;28;20571;-71
2022/07/10 02:18:40;;;;;;;8.43;7.97;;;;;;;20.00;99.85;98985.84;5120342;27;20205;-71
2022/07/10 02:21:07;;;;;;;9.03;8.53;;;;;;;19.85;99.62;98962.63;5123608;27;20205;-70
2022/07/10 02:23:35;;;;;;;9.83;8.90;;;;;;;20.03;99.74;98983.84;5129138;27;20210;-71
2022/07/10 02:26:02;;;;;;;9.90;9.30;;;;;;;20.00;100.00;98980.66;5129240;27;20732;-71
2022/07/10 02:28:30;;;;;;;10.37;9.57;;;;;;;19.94;100.00;98981.91;5127445;27;20213;-71
2022/07/10 02:30:57;;;;;;;9.37;8.87;;;;;;;19.94;100.00;98981.91;5123656;27;20201;-70
2022/07/10 02:33:24;;;;;;;9.13;8.53;;;;;;;19.96;100.00;98987.03;5124257;27;20201;-70
2022/07/10 02:35:51;;;;;;;9.60;8.97;;;;;;;19.90;100.00;98981.31;5134699;27;20566;-70
2022/07/10 02:38:18;;;;;;;9.20;8.70;;;;;;;19.88;99.86;98983.22;5129444;27;20196;-70
2022/07/10 02:40:44;;;;;;;9.40;8.57;;;;;;;19.85;99.88;98978.25;5122337;27;20208;-70
2022/07/10 02:43:11;;;;;;;10.13;9.07;;;;;;;19.82;99.88;98981.06;5123731;27;20213;-71
2022/07/10 02:45:40;;;;;;;9.77;8.97;;;;;;;19.71;100.00;98981.03;5122596;27;20202;-71
2022/07/10 02:48:06;;;;;;;8.30;7.80;;;;;;;19.71;100.00;98986.22;5130144;27;20625;-71
2022/07/10 02:50:33;;;;;;;8.00;7.60;;;;;;;19.68;100.00;98991.66;5130566;27;20808;-71
2022/07/10 02:53:00;;;;;;;8.20;7.70;;;;;;;19.65;100.00;98993.66;5125175;27;20199;-71
2022/07/10 02:55:27;;;;;;;8.50;8.00;;;;;;;19.67;100.00;98994.38;5124780;27;20212;-71
2022/07/10 02:57:54;;;;;;;8.60;7.83;;;;;;;19.67;99.72;98995.22;5135670;27;20249;-71
2022/07/10 03:00:21;;;;;;;8.07;7.67;;;;;;;19.65;99.76;99002.28;5135375;27;20201;-70
2022/07/10 03:02:49;;;;;;;7.30;6.90;;;;;;;19.63;99.66;98998.97;5134709;27;20232;-70
2022/07/10 03:05:16;;;;;;;6.90;6.50;;;;;;;19.55;99.85;99001.28;5125934;27;20421;-71
2022/07/10 03:07:43;;;;;;;7.13;6.77;;;;;;;19.53;99.70;99002.34;5134894;27;20675;-71
2022/07/10 03:10:10;;;;;;;7.60;7.07;;;;;;;19.46;99.99;99004.56;5135363;27;20219;-71
2022/07/10 03:12:37;;;;;;;7.57;7.17;;;;;;;19.41;100.00;99009.28;5134742;27;20192;-70
2022/07/10 03:15:05;;;;;;;6.80;6.30;;;;;;;19.36;100.00;99003.53;5126369;27;20556;-71
2022/07/10 03:17:32;;;;;;;7.30;6.80;;;;;;;19.28;100.00;99013.69;5133159;27;20198;-70
2022/07/10 03:20:01;;;;;;;9.37;8.57;;;;;;;19.19;100.00;99009.16;5133880;27;20194;-70
2022/07/10 03:22:28;;;;;;;9.00;8.10;;;;;;;19.24;100.00;99012.22;5133846;27;20281;-70
2022/07/10 03:24:55;;;;;;;12.07;11.10;;;;;;;19.21;100.00;99013.28;5124403;27;20274;-70
2022/07/10 03:27:22;;;;;;;11.63;10.87;;;;;;;19.17;100.00;99011.84;5120885;27;20208;-71
2022/07/10 03:29:49;;;;;;;9.17;8.67;;;;;;;19.15;100.00;99012.91;5130151;27;20695;-71
2022/07/10 03:32:16;;;;;;;8.73;7.87;;;;;;;19.08;100.00;99001.28;5120314;27;20193;-70
2022/07/10 03:34:43;;;;;;;7.50;6.97;;;;;;;19.10;100.00;99014.97;5126296;27;20196;-70
2022/07/10 03:37:11;;;;;;;7.47;6.80;;;;;;;19.03;100.00;99005.97;5119946;27;20201;-70
2022/07/10 03:39:38;;;;;;;7.33;7.03;;;;;;;19.02;100.00;99001.72;5122428;27;20667;-71
2022/07/10 03:42:06;;;;;;;7.40;6.97;;;;;;;19.01;100.00;98992.25;5125189;27;20239;-70
2022/07/10 03:44:33;;;;;;;7.17;6.83;;;;;;;18.93;100.00;98986.78;5123297;27;20471;-70
2022/07/10 03:47:00;;;;;;;6.87;6.47;;;;;;;18.98;100.00;98982.06;5118396;27;20222;-71
2022/07/10 03:49:27;;;;;;;7.20;6.90;;;;;;;19.03;100.00;98982.59;5118517;27;20258;-70
2022/07/10 03:51:54;;;;;;;7.97;7.23;;;;;;;19.06;100.00;98983.22;5128475;27;20200;-70
2022/07/10 03:54:23;;;;;;;6.77;6.43;;;;;;;19.08;100.00;98988.28;5126139;27;20215;-70
2022/07/10 03:59:34;;;;;;;7.77;7.20;;;;;;;19.09;100.00;98983.00;5119666;27;20204;-71
2022/07/10 04:02:01;;;;;;;8.20;7.70;;;;;;;19.10;100.00;98983.78;5122006;27;20712;-71
2022/07/10 04:04:28;;;;;;;7.83;7.33;;;;;;;19.15;100.00;98986.91;5134284;27;20198;-71
2022/07/10 04:06:55;;;;;;;8.80;8.10;;;;;;;19.14;100.00;98991.28;5122935;27;20195;-71
2022/07/10 04:09:23;;;;;;;9.07;8.50;;;;;;;19.16;100.00;98988.56;5131618;27;20194;-70
2022/07/10 04:11:50;;;;;;;7.90;7.47;;;;;;;19.13;100.00;98986.16;5134225;27;20202;-71
2022/07/10 04:14:17;;;;;;;7.90;7.30;;;;;;;19.21;100.00;98991.66;5133906;27;20559;-70
2022/07/10 04:16:44;;;;;;;8.23;7.50;;;;;;;19.27;100.00;98991.22;5123774;27;20206;-70
2022/07/10 04:19:11;;;;;;;9.97;9.27;;;;;;;19.30;100.00;98985.78;5121497;27;20646;-71
2022/07/10 04:21:38;;;;;;;8.33;7.83;;;;;;;19.31;100.00;98984.88;5129410;27;20196;-70
2022/07/10 04:24:05;;;;;;;9.73;8.50;;;;;;;19.37;100.00;98987.03;5127360;27;20231;-70
2022/07/10 04:26:33;;;;;;;8.03;7.63;;;;;;;19.36;100.00;98995.75;5131272;27;20286;-70
2022/07/10 04:29:00;;;;;;;7.93;7.47;;;;;;;19.35;100.00;98988.91;5123239;27;20200;-70
2022/07/10 04:31:27;;;;;;;8.97;8.37;;;;;;;19.35;100.00;98991.50;5122824;27;20232;-70
2022/07/10 04:33:57;;;;;;;7.90;7.30;;;;;;;19.37;100.00;98992.22;5125915;27;20197;-70
2022/07/10 04:36:24;;;;;;;7.83;7.07;;;;;;;19.36;100.00;98981.00;5124633;27;20202;-70
2022/07/10 04:38:50;;;;;;;8.10;7.70;;;;;;;19.40;100.00;98979.03;5120786;27;20197;-70
2022/07/10 04:41:17;;;;;;;6.50;6.17;;;;;;;19.46;100.00;98981.19;5125046;27;20212;-71
2022/07/10 04:43:46;;;;;;;7.17;6.77;;;;;;;19.51;100.00;98976.50;5130053;27;20210;-70
2022/07/10 04:46:13;;;;;;;7.57;7.07;;;;;;;19.56;100.00;98984.78;5125329;27;20694;-70
2022/07/10 04:48:39;;;;;;;7.37;6.97;;;;;;;19.52;100.00;98975.53;5124849;27;20593;-70
2022/07/10 04:51:06;;;;;;;8.30;7.83;;;;;;;19.54;100.00;98973.66;5129530;27;20215;-70
2022/07/10 04:53:33;;;;;;;6.80;6.50;;;;;;;19.70;100.00;98991.56;5130160;27;20288;-70
2022/07/10 04:56:02;;;;;;;7.27;6.87;;;;;;;19.79;100.00;98989.09;5133004;27;20665;-70
2022/07/10 04:58:28;;;;;;;8.57;7.77;;;;;;;20.09;100.00;98992.97;5133064;27;20219;-71
2022/07/10 05:00:57;;;;;;;7.90;7.40;;;;;;;20.36;98.88;98983.91;5119616;27;20202;-70
2022/07/10 05:03:23;;;;;;;7.77;7.37;;;;;;;20.66;96.86;98996.34;5119622;27;20218;-70
2022/07/10 05:05:50;;;;;;;7.33;6.93;;;;;;;20.97;97.05;99004.38;5125979;27;20208;-70
2022/07/10 05:08:17;;;;;;;7.37;7.00;;;;;;;21.30;94.72;99017.34;5121265;27;20676;-70
2022/07/10 05:10:44;;;;;;;7.53;7.23;;;;;;;21.54;93.67;99004.94;5118946;27;20567;-71
2022/07/10 05:13:11;;;;;;;7.27;6.80;;;;;;;21.81;92.56;99007.91;5120718;27;20263;-70
2022/07/10 05:15:38;;;;;;;6.27;5.97;;;;;;;22.09;90.87;99008.25;5115124;27;20191;-70
2022/07/10 05:18:07;;;;;;;7.13;6.73;;;;;;;22.18;88.78;99002.25;5117271;27;20209;-70
2022/07/10 05:20:35;;;;;;;7.37;6.97;;;;;;;22.22;89.64;99003.66;5130048;27;20632;-70
2022/07/10 05:23:02;;;;;;;7.90;7.20;;;;;;;22.04;88.98;99003.41;5122632;27;20291;-71
2022/07/10 05:25:30;;;;;;;6.90;6.60;;;;;;;21.84;89.75;99012.06;5130787;27;20205;-70
2022/07/10 05:27:57;;;;;;;7.43;7.10;;;;;;;21.79;91.22;99008.97;5127182;27;20226;-70
2022/07/10 05:30:24;;;;;;;7.13;6.70;;;;;;;21.78;91.50;99002.94;5126290;27;20285;-71
2022/07/10 05:32:51;;;;;;;7.50;7.00;;;;;;;21.80;92.33;99005.44;5122605;27;20207;-70
2022/07/10 05:35:19;;;;;;;7.13;6.63;;;;;;;21.81;91.79;99007.91;5118411;27;20585;-71
2022/07/10 05:37:46;;;;;;;7.70;7.30;;;;;;;21.72;92.02;98993.00;5124790;27;20198;-71
2022/07/10 05:40:13;;;;;;;7.80;7.30;;;;;;;21.77;92.17;99003.06;5113994;27;20216;-73
2022/07/10 05:42:40;;;;;;;7.00;6.50;;;;;;;21.73;91.14;98988.63;5109700;28;20218;-70
2022/07/10 05:45:08;;;;;;;8.03;7.47;;;;;;;21.83;91.43;98998.19;5128849;27;20205;-70
2022/07/10 05:47:34;;;;;;;8.27;7.80;;;;;;;21.89;92.49;99004.69;5122899;27;20234;-70
2022/07/10 05:50:01;;;;;;;6.93;6.63;;;;;;;21.84;90.47;99002.41;5117318;27;20221;-70
2022/07/10 05:52:29;;;;;;;6.63;6.33;;;;;;;21.88;90.81;98998.59;5123938;27;20673;-71
2022/07/10 05:54:57;;;;;;;7.53;6.93;;;;;;;21.89;91.40;99002.91;5129523;27;20206;-71
2022/07/10 05:57:24;;;;;;;7.17;6.77;;;;;;;21.96;90.68;99001.47;5128798;27;20205;-71
2022/07/10 05:59:52;;;;;;;7.43;7.03;;;;;;;21.98;91.13;99002.16;5130773;27;20666;-71
2022/07/10 06:02:19;;;;;;;7.87;7.33;;;;;;;22.00;89.93;99006.41;5117077;27;20199;-71
2022/07/10 06:04:46;;;;;;;6.60;6.20;;;;;;;22.09;89.87;99005.66;5124845;27;20194;-71
2022/07/10 06:07:13;;;;;;;7.07;6.67;;;;;;;22.22;89.74;99001.06;5128881;27;20198;-71
2022/07/10 06:09:42;;;;;;;6.57;6.27;;;;;;;22.24;88.81;99009.56;5122245;27;20194;-71
2022/07/10 06:12:09;;;;;;;6.60;6.30;;;;;;;22.28;87.33;99013.59;5128175;27;20205;-71
2022/07/10 06:14:36;;;;;;;6.63;6.23;;;;;;;22.36;88.44;99018.97;5127504;27;20688;-71
2022/07/10 06:17:04;;;;;;;6.53;6.23;;;;;;;22.43;87.95;99017.50;5127280;27;20202;-72
2022/07/10 06:19:31;;;;;;;6.97;6.67;;;;;;;22.52;87.87;99016.72;5124542;27;20201;-71
2022/07/10 06:24:43;;;;;;;6.37;6.03;;;;;;;22.76;87.88;99016.47;5129942;28;20266;-71
2022/07/10 06:27:10;;;;;;;6.57;6.27;;;;;;;22.78;85.64;99010.13;5130814;28;20194;-71
2022/07/10 06:29:38;;;;;;;7.00;6.53;;;;;;;22.74;86.44;99014.00;5123290;28;20247;-71
2022/07/10 06:32:05;;;;;;;6.13;5.73;;;;;;;22.75;86.39;99014.78;5129283;28;20205;-71
2022/07/10 06:34:32;;;;;;;6.27;5.97;;;;;;;22.81;87.12;99020.31;5128700;28;20206;-71
2022/07/10 06:36:59;;;;;;;6.43;5.93;;;;;;;22.85;86.64;99021.72;5127664;28;20634;-71
2022/07/10 06:39:26;;;;;;;5.87;5.67;;;;;;;22.89;87.28;99017.88;5127195;27;20209;-71
2022/07/10 06:41:54;;;;;;;7.60;5.93;;;;;;;22.97;86.94;99025.88;5123503;27;20226;-71
2022/07/10 06:44:22;;;;;;;6.07;5.77;;;;;;;22.99;86.40;99023.13;5129806;28;20218;-71
2022/07/10 06:47:55;;;;;;;7.00;6.60;;;;;;;23.08;84.64;99021.50;5124770;28;20233;-71
2022/07/10 06:49:35;;;;;;;6.23;6.03;;;;;;;23.23;84.99;99022.78;5126211;28;20205;-71
2022/07/10 06:52:02;;;;;;;6.33;6.03;;;;;;;23.33;84.39;99026.22;5125033;27;20202;-70
2022/07/10 06:54:29;;;;;;;6.43;6.13;;;;;;;23.44;83.24;99034.81;5124130;28;20574;-71
2022/07/10 06:56:57;;;;;;;6.00;5.47;;;;;;;23.51;83.08;99035.09;5128093;28;20204;-71
2022/07/10 06:59:24;;;;;;;6.33;6.00;;;;;;;23.52;83.25;99028.91;5127297;28;20205;-70
2022/07/10 07:01:51;;;;;;;6.07;5.68;;;;;;;23.56;82.22;99018.97;5120616;27;20442;-66
2022/07/10 07:04:18;;;;;;;5.83;5.53;;;;;;;23.68;82.11;99026.59;5129171;27;20692;-66
2022/07/10 07:06:45;;;;;;;5.97;5.57;;;;;;;23.63;81.88;99013.06;5133513;27;20206;-66
2022/07/10 07:09:12;;;;;;;6.13;5.83;;;;;;;23.73;81.99;99019.13;5132798;27;20225;-66
2022/07/10 07:11:39;;;;;;;5.57;5.23;;;;;;;23.72;81.03;99017.47;5127530;27;20653;-66
2022/07/10 07:14:07;;;;;;;6.03;5.73;;;;;;;23.71;82.91;99017.63;5132965;27;20617;-66
2022/07/10 07:16:42;;;;;;;5.83;5.53;;;;;;;23.73;83.07;99016.50;5118091;27;20293;-66
2022/07/10 07:19:10;;;;;;;9.47;6.27;;;;;;;23.81;82.91;99016.63;5132722;27;20281;-66
2022/07/10 07:24:21;;;;;;;5.37;5.17;;;;;;;23.86;83.98;99011.81;5130076;27;20285;-66
2022/07/10 07:26:49;;;;;;;5.50;5.30;;;;;;;23.97;84.50;99016.88;5129710;27;20212;-66
2022/07/10 07:29:18;;;;;;;6.23;5.93;;;;;;;24.04;83.98;99015.38;5130555;27;20686;-66
2022/07/10 07:31:45;;;;;;;5.93;5.37;;;;;;;24.27;82.55;99010.66;5124520;27;20207;-66
2022/07/10 07:34:12;;;;;;;5.77;5.50;;;;;;;24.57;81.32;99014.84;5129331;27;20646;-67
2022/07/10 07:36:39;;;;;;;6.30;6.00;;;;;;;24.80;79.26;99016.13;5116625;27;20205;-66
2022/07/10 07:39:06;;;;;;;6.27;5.97;;;;;;;24.96;80.31;99015.53;5113631;28;20823;-66
2022/07/10 07:41:32;;;;;;;6.00;5.70;;;;;;;25.06;79.33;99017.13;5113989;28;20195;-66
2022/07/10 07:43:59;;;;;;;5.67;5.47;;;;;;;25.18;78.11;99009.03;5130899;27;20210;-66
2022/07/10 07:46:27;;;;;;;6.40;6.00;;;;;;;25.23;77.62;99012.06;5120567;27;20225;-66
2022/07/10 07:48:54;;;;;;;5.10;4.63;;;;;;;25.33;77.17;99007.59;5113536;28;20202;-66
2022/07/10 07:51:21;;;;;;;5.80;5.50;;;;;;;25.44;78.02;99015.22;5113658;27;20578;-66
2022/07/10 07:53:48;;;;;;;5.80;5.60;;;;;;;25.45;77.08;99012.47;5119868;27;20676;-67
2022/07/10 07:56:16;;;;;;;6.27;5.90;;;;;;;25.46;77.74;99010.66;5134102;27;20574;-66
2022/07/10 07:58:42;;;;;;;5.40;5.20;;;;;;;25.52;77.08;99012.72;5133941;27;20303;-66
2022/07/10 08:01:09;;;;;;;5.10;4.90;;;;;;;25.60;76.97;99004.91;5133666;27;20213;-66
2022/07/10 08:03:38;;;;;;;5.83;5.43;;;;;;;25.65;75.72;99009.72;5126207;27;20224;-66
2022/07/10 08:06:05;;;;;;;5.53;5.33;;;;;;;25.77;75.82;99016.38;5132806;27;20197;-66
2022/07/10 08:08:32;;;;;;;6.13;5.90;;;;;;;25.84;76.08;99015.63;5127298;27;20697;-66
2022/07/10 08:10:59;;;;;;;5.67;5.47;;;;;;;25.81;74.84;99017.72;5116758;27;20198;-66
2022/07/10 08:13:26;;;;;;;5.33;5.13;;;;;;;25.83;77.28;99016.59;5121054;27;20191;-65
2022/07/10 08:15:53;;;;;;;5.23;4.83;;;;;;;25.89;75.33;99010.72;5113522;27;20199;-64
2022/07/10 08:18:20;;;;;;;5.53;5.23;;;;;;;26.04;74.44;99009.19;5115715;27;20197;-64
2022/07/10 08:20:48;;;;;;;5.97;5.77;;;;;;;26.15;75.15;99009.94;5113057;28;20776;-64
2022/07/10 08:23:15;;;;;;;5.50;5.20;;;;;;;26.20;74.11;99016.41;5113535;27;20201;-64
2022/07/10 08:25:42;;;;;;;5.87;5.37;;;;;;;26.26;72.25;99017.59;5120292;27;20194;-64
2022/07/10 08:28:09;;;;;;;4.93;4.63;;;;;;;26.23;71.62;99021.38;5128064;27;20202;-65
2022/07/10 08:30:36;;;;;;;4.97;4.67;;;;;;;26.11;70.19;99030.44;5112647;28;20289;-65
2022/07/10 08:33:04;;;;;;;5.90;5.60;;;;;;;26.10;70.85;99024.38;5116990;27;20670;-65
2022/07/10 08:35:31;;;;;;;4.80;4.60;;;;;;;25.97;71.29;99018.69;5117635;27;20201;-65
2022/07/10 08:37:59;;;;;;;5.47;5.27;;;;;;;25.90;71.20;99012.38;5133062;27;20198;-66
2022/07/10 08:40:31;;;;;;;4.90;4.70;;;;;;;25.87;72.30;99036.34;5131573;27;20665;-65
2022/07/10 08:42:58;;;;;;;6.00;5.70;;;;;;;25.87;72.17;99033.72;5131376;27;20612;-68
2022/07/10 08:45:25;;;;;;;8.30;7.80;;;;;;;25.77;73.36;99025.09;5132705;27;20218;-65
2022/07/10 08:47:52;;;;;;;5.77;5.57;;;;;;;25.84;72.58;99036.63;5132860;27;20225;-65
2022/07/10 08:50:23;;;;;;;7.27;6.70;;;;;;;25.75;72.61;99039.34;5132682;27;20194;-64
2022/07/10 08:52:56;;;;;;;8.30;7.70;;;;;;;25.78;72.96;99036.41;5112530;28;20231;-65
2022/07/10 08:55:26;;;;;;;7.33;6.83;;;;;;;25.73;73.22;99034.22;5131384;27;20190;-65
2022/07/10 08:57:55;;;;;;;15.37;7.77;;;;;;;25.76;73.74;99033.94;5131979;27;20629;-65
2022/07/10 09:00:21;;;;;;;6.63;6.27;;;;;;;25.69;72.43;99035.50;5128536;27;20201;-65
2022/07/10 09:02:48;;;;;;;8.47;7.77;;;;;;;25.72;72.12;99040.44;5126242;27;20615;-65
2022/07/10 09:05:15;;;;;;;10.13;8.57;;;;;;;25.65;71.18;99044.69;5129465;27;20232;-64
2022/07/10 09:07:43;;;;;;;11.97;8.93;;;;;;;25.63;72.74;99045.78;5124302;27;20205;-64
2022/07/10 09:10:12;;;;;;;9.63;8.63;;;;;;;25.62;73.17;99044.97;5119911;27;20209;-65
2022/07/10 09:12:59;;;;;;;11.75;9.75;;;;;;;25.51;75.13;99045.19;5124135;27;20522;-70
2022/07/10 09:15:29;;;;;;;15.97;12.13;;;;;;;25.62;75.26;99044.97;5123109;27;20195;-70
2022/07/10 09:17:58;;;;;;;11.93;9.90;;;;;;;25.68;74.43;99039.13;5121394;27;20211;-70
2022/07/10 09:20:26;;;;;;;7.30;6.90;;;;;;;25.76;73.75;99043.59;5131132;27;20202;-70
2022/07/10 09:22:53;;;;;;;7.83;6.93;;;;;;;25.75;72.89;99040.16;5121377;27;20198;-69
2022/07/10 09:25:20;;;;;;;6.23;5.93;;;;;;;25.63;72.45;99046.59;5126720;27;20222;-70
2022/07/10 09:27:54;;;;;;;6.00;5.70;;;;;;;25.58;72.27;99038.38;5117964;27;20204;-68
2022/07/10 09:30:37;;;;;;;5.30;4.90;;;;;;;25.43;71.72;99034.56;5116753;27;20195;-69
2022/07/10 09:33:19;;;;;;;7.47;6.83;;;;;;;25.52;71.87;99028.47;5125340;27;20665;-69
2022/07/10 09:36:06;;;;;;;6.30;5.90;;;;;;;25.66;71.15;99043.69;5115616;27;20768;-69
2022/07/10 09:38:51;;;;;;;5.67;5.27;;;;;;;25.71;70.80;99032.75;5126328;27;20229;-69
2022/07/10 09:41:20;;;;;;;5.37;5.17;;;;;;;25.82;69.84;99046.44;5125387;27;20198;-69
2022/07/10 09:43:48;;;;;;;6.17;5.70;;;;;;;25.82;69.75;99046.44;5116338;27;20222;-69
2022/07/10 09:46:16;;;;;;;5.10;4.70;;;;;;;25.74;68.74;99028.00;5121236;27;20581;-69
2022/07/10 09:48:43;;;;;;;5.20;5.00;;;;;;;25.92;68.80;99047.19;5121147;27;20579;-69
2022/07/10 09:51:12;;;;;;;5.60;5.20;;;;;;;25.96;70.21;99043.28;5128690;27;20198;-69
2022/07/10 09:53:41;;;;;;;4.87;4.67;;;;;;;26.02;71.81;99040.06;5127839;27;20213;-69
2022/07/10 09:56:09;;;;;;;5.40;5.20;;;;;;;26.03;70.00;99046.16;5120950;27;20604;-69
2022/07/10 09:58:37;;;;;;;4.60;4.40;;;;;;;26.06;70.40;99049.28;5116807;27;20267;-69
2022/07/10 10:01:04;;;;;;;4.80;4.50;;;;;;;26.09;70.22;99048.97;5116306;27;20198;-69
2022/07/10 10:03:37;;;;;;;5.03;4.83;;;;;;;26.10;69.78;99048.03;5118405;27;20205;-69
2022/07/10 10:06:09;;;;;;;4.93;4.73;;;;;;;26.15;70.71;99044.09;5121764;27;20226;-69
2022/07/10 10:08:50;;;;;;;5.13;4.93;;;;;;;26.21;69.65;99036.44;5120012;27;20195;-69
2022/07/10 10:11:21;;;;;;;5.30;5.10;;;;;;;26.28;69.72;99041.91;5115330;27;20900;-69
2022/07/10 10:13:49;;;;;;;5.00;4.80;;;;;;;26.36;68.75;99026.22;5121062;27;20267;-69
2022/07/10 10:16:16;;;;;;;4.20;4.00;;;;;;;26.49;71.03;99026.63;5115301;27;20187;-69
2022/07/10 10:21:30;;;;;;;3.77;3.47;;;;;;;27.02;66.45;99031.63;5113047;28;20256;-69
2022/07/10 10:23:56;;;;;;;4.50;4.30;;;;;;;27.15;65.20;99029.38;5128334;28;20209;-69
2022/07/10 10:26:24;;;;;;;4.50;4.30;;;;;;;27.19;65.40;99027.25;5130831;28;20268;-69
2022/07/10 10:28:53;;;;;;;4.53;4.33;;;;;;;27.33;64.76;99030.09;5131113;27;20198;-69
2022/07/10 10:31:22;;;;;;;3.60;3.50;;;;;;;27.51;66.07;99022.09;5110495;28;20206;-69
2022/07/10 10:33:51;;;;;;;4.07;3.87;;;;;;;27.61;60.03;99002.53;5115389;28;20194;-69
2022/07/10 10:36:47;;;;;;;3.63;3.53;;;;;;;27.88;63.62;99009.28;5124883;28;20209;-69
2022/07/10 10:39:16;;;;;;;4.40;4.00;;;;;;;27.97;63.08;99013.56;5127247;27;20202;-69
2022/07/10 10:41:48;;;;;;;3.57;3.47;;;;;;;28.11;57.99;99010.25;5125592;27;20206;-69
2022/07/10 10:44:22;;;;;;;3.03;2.83;;;;;;;28.27;57.88;99000.69;5121390;27;20678;-70
2022/07/10 10:47:06;;;;;;;3.10;3.00;;;;;;;28.47;59.91;98999.28;5131107;27;20213;-69
2022/07/10 10:49:56;;;;;;;3.03;2.92;;;;;;;28.64;53.77;99001.72;5126618;27;20240;-68
2022/07/10 10:52:25;;;;;;;3.00;2.90;;;;;;;28.68;54.79;98994.34;5133853;27;20735;-68
2022/07/10 10:55:08;;;;;;;3.83;3.63;;;;;;;28.72;55.05;98993.00;5120699;27;20194;-68
2022/07/10 10:57:44;;;;;;;3.87;3.53;;;;;;;28.71;55.95;98986.06;5127091;27;20662;-69
2022/07/10 11:00:14;;;;;;;3.67;3.55;;;;;;;28.66;54.87;98977.84;5117373;27;20206;-69
2022/07/10 11:02:42;;;;;;;3.92;3.72;;;;;;;28.93;57.58;98989.75;5124299;27;20278;-70
2022/07/10 11:05:45;;;;;;;3.58;3.47;;;;;;;29.16;55.99;98983.53;5128477;27;20305;-69
2022/07/10 11:08:13;;;;;;;3.40;3.30;;;;;;;29.27;55.82;98984.16;5121342;27;20201;-69
2022/07/10 11:10:41;;;;;;;3.38;3.28;;;;;;;29.37;54.69;98976.84;5122601;27;20783;-69
2022/07/10 11:13:10;;;;;;;3.40;3.20;;;;;;;29.54;56.54;98973.06;5125730;27;20589;-69
2022/07/10 11:15:40;;;;;;;3.00;2.90;;;;;;;29.52;50.38;98961.84;5121459;27;20646;-69
2022/07/10 11:18:08;;;;;;;3.40;3.30;;;;;;;29.66;55.01;98961.09;5133762;27;20194;-69
2022/07/10 11:20:36;;;;;;;2.58;2.47;;;;;;;29.78;48.48;98967.59;5124437;27;20201;-69
2022/07/10 11:23:39;;;;;;;2.90;2.80;;;;;;;29.85;50.65;98960.63;5128786;27;20210;-69
2022/07/10 11:26:09;;;;;;;2.30;2.20;;;;;;;30.00;53.86;98957.97;5127226;27;20217;-69
2022/07/10 11:28:50;;;;;;;2.75;2.65;;;;;;;30.12;50.47;98957.34;5130956;27;20814;-69
2022/07/10 11:31:17;;;;;;;2.72;2.60;;;;;;;30.21;47.37;98961.56;5124510;27;20194;-70
2022/07/10 11:33:46;;;;;;;2.90;2.80;;;;;;;30.21;46.93;98961.56;5120481;27;20625;-70
2022/07/10 11:36:14;;;;;;;3.10;2.97;;;;;;;30.13;46.79;98955.53;5124399;27;20570;-69
2022/07/10 11:38:42;;;;;;;2.88;2.78;;;;;;;30.08;49.16;98950.78;5118500;27;20216;-69
2022/07/10 11:41:18;;;;;;;2.65;2.55;;;;;;;29.95;48.01;98947.94;5118858;27;20218;-68
2022/07/10 11:43:52;;;;;;;2.92;2.83;;;;;;;29.83;47.61;98954.66;5120043;27;20198;-69
2022/07/10 11:46:20;;;;;;;2.60;2.50;;;;;;;29.82;48.36;98953.03;5115759;27;20209;-69
2022/07/10 11:48:47;;;;;;;2.85;2.75;;;;;;;29.85;49.63;98942.13;5127166;27;20274;-69
2022/07/10 11:51:19;;;;;;;3.45;3.35;;;;;;;29.96;49.32;98946.94;5124496;27;20202;-69